createdAt,value
2022-09-10T00:00:54.473Z,65.46
2022-09-10T00:01:51.067Z,66.35
2022-09-10T00:02:47.706Z,66.05
2022-09-10T00:03:44.567Z,66.28
2022-09-10T00:04:41.165Z,67.80
2022-09-10T00:05:42.787Z,67.12
2022-09-10T00:06:39.699Z,65.73
2022-09-10T00:07:36.313Z,66.55
2022-09-10T00:08:34.407Z,66.36
2022-09-10T00:09:31.028Z,66.48
2022-09-10T00:10:27.625Z,67.01
2022-09-10T00:11:32.013Z,66.68
2022-09-10T00:12:28.727Z,66.50
2022-09-10T00:13:25.294Z,65.75
2022-09-10T00:14:23.859Z,64.92
2022-09-10T00:15:20.540Z,65.88
2022-09-10T00:16:22.175Z,65.07
2022-09-10T00:17:19.057Z,65.38
2022-09-10T00:18:18.033Z,64.58
2022-09-10T00:19:15.488Z,65.15
2022-09-10T00:20:12.277Z,64.73
2022-09-10T00:21:12.780Z,66.16
2022-09-10T00:22:10.492Z,66.17
2022-09-10T00:23:07.150Z,65.48
2022-09-10T00:24:05.241Z,64.38
2022-09-10T00:25:06.228Z,63.07
2022-09-10T00:26:22.546Z,62.32
2022-09-10T00:27:19.273Z,62.79
2022-09-10T00:28:16.319Z,64.38
2022-09-10T00:29:15.890Z,66.36
2022-09-10T00:30:12.993Z,66.50
2022-09-10T00:31:10.583Z,66.35
2022-09-10T00:32:07.198Z,66.06
2022-09-10T00:33:03.825Z,66.08
2022-09-10T00:34:02.110Z,66.38
2022-09-10T00:35:01.293Z,67.17
2022-09-10T00:35:57.901Z,67.84
2022-09-10T00:36:54.585Z,67.32
2022-09-10T00:37:51.435Z,68.22
2022-09-10T00:38:49.129Z,67.42
2022-09-10T00:39:45.754Z,66.71
2022-09-10T00:40:42.331Z,66.74
2022-09-10T00:41:40.777Z,68.05
2022-09-10T00:42:37.338Z,67.53
2022-09-10T00:43:58.634Z,67.46
2022-09-10T00:45:01.300Z,68.45
2022-09-10T00:45:58.103Z,68.98
2022-09-10T00:46:56.272Z,70.36
2022-09-10T00:47:56.393Z,68.82
2022-09-10T00:48:56.815Z,69.65
2022-09-10T00:49:58.787Z,67.85
2022-09-10T00:50:56.202Z,68.14
2022-09-10T00:51:54.311Z,68.50
2022-09-10T00:52:53.476Z,68.48
2022-09-10T00:53:51.005Z,69.59
2022-09-10T00:54:48.354Z,68.59
2022-09-10T00:55:50.460Z,70.23
2022-09-10T00:56:48.079Z,69.32
2022-09-10T00:57:47.684Z,68.78
2022-09-10T00:58:46.220Z,69.41
2022-09-10T00:59:48.620Z,69.47
2022-09-10T01:00:45.896Z,69.55
2022-09-10T01:01:43.258Z,70.05
2022-09-10T01:02:40.163Z,70.13
2022-09-10T01:03:38.714Z,70.39
2022-09-10T01:04:35.882Z,69.78
2022-09-10T01:05:34.446Z,70.25
2022-09-10T01:06:31.487Z,70.40
2022-09-10T01:07:30.281Z,70.20
2022-09-10T01:08:27.528Z,70.43
2022-09-10T01:09:25.377Z,69.95
2022-09-10T01:10:29.605Z,68.18
2022-09-10T01:11:49.177Z,67.91
2022-09-10T01:13:30.141Z,67.00
2022-09-10T01:14:38.800Z,66.39
2022-09-10T01:16:03.133Z,65.47
2022-09-10T01:17:33.708Z,66.07
2022-09-10T01:18:45.060Z,66.01
2022-09-10T01:19:45.933Z,64.51
2022-09-10T01:20:56.632Z,63.61
2022-09-10T01:22:21.962Z,62.76
2022-09-10T01:23:33.782Z,62.25
2022-09-10T01:24:51.364Z,63.09
2022-09-10T01:26:20.890Z,62.46
2022-09-10T01:27:42.621Z,61.91
2022-09-10T01:29:02.177Z,63.65
2022-09-10T01:30:03.540Z,62.86
2022-09-10T01:31:10.789Z,63.80
2022-09-10T01:32:21.145Z,63.41
2022-09-10T01:33:34.164Z,65.21
2022-09-10T01:34:47.354Z,65.50
2022-09-10T01:35:52.956Z,68.69
2022-09-10T01:36:54.779Z,67.82
2022-09-10T01:37:59.323Z,67.86
2022-09-10T01:38:56.150Z,68.11
2022-09-10T01:39:53.712Z,68.62
2022-09-10T01:40:52.788Z,69.80
2022-09-10T01:41:50.807Z,68.75
2022-09-10T01:42:49.760Z,67.31
2022-09-10T01:43:46.371Z,67.40
2022-09-10T01:44:51.456Z,68.94
2022-09-10T01:45:54.825Z,68.31
2022-09-10T01:47:04.631Z,68.11
2022-09-10T01:48:24.132Z,67.37
2022-09-10T01:49:36.833Z,68.30
2022-09-10T01:50:57.773Z,66.64
2022-09-10T01:52:00.232Z,67.93
2022-09-10T01:53:10.230Z,67.09
2022-09-10T01:54:39.836Z,69.03
2022-09-10T01:55:42.390Z,71.28
2022-09-10T01:57:14.273Z,70.36
2022-09-10T01:58:13.613Z,70.18
2022-09-10T01:59:23.989Z,69.90
2022-09-10T02:00:24.232Z,70.02
2022-09-10T02:01:27.986Z,69.53
2022-09-10T02:02:51.177Z,69.09
2022-09-10T02:03:52.169Z,68.91
2022-09-10T02:04:51.626Z,68.49
2022-09-10T02:05:52.392Z,69.16
2022-09-10T02:06:51.555Z,70.91
2022-09-10T02:07:52.951Z,71.03
2022-09-10T02:08:53.537Z,72.41
2022-09-10T02:09:52.255Z,72.34
2022-09-10T02:11:06.458Z,72.63
2022-09-10T02:12:03.349Z,71.40
2022-09-10T02:12:59.967Z,73.26
2022-09-10T02:13:58.364Z,73.28
2022-09-10T02:14:57.534Z,72.78
2022-09-10T02:15:54.367Z,71.91
2022-09-10T02:16:55.189Z,71.23
2022-09-10T02:17:53.691Z,69.75
2022-09-10T02:18:50.576Z,70.80
2022-09-10T02:19:51.428Z,70.41
2022-09-10T02:20:50.735Z,70.52
2022-09-10T02:21:47.388Z,72.30
2022-09-10T02:22:50.055Z,69.09
2022-09-10T02:23:50.886Z,67.58
2022-09-10T02:24:47.460Z,67.40
2022-09-10T02:25:44.707Z,70.02
2022-09-10T02:26:44.350Z,73.26
2022-09-10T02:27:43.585Z,73.97
2022-09-10T02:28:40.998Z,75.40
2022-09-10T02:29:39.119Z,77.60
2022-09-10T02:30:35.743Z,79.11
2022-09-10T02:31:32.733Z,80.74
2022-09-10T02:32:29.375Z,82.25
2022-09-10T02:33:26.040Z,83.03
2022-09-10T02:34:23.133Z,83.64
2022-09-10T02:35:20.831Z,85.34
2022-09-10T02:36:17.641Z,84.82
2022-09-10T02:37:16.055Z,84.29
2022-09-10T02:38:12.623Z,84.36
2022-09-10T02:39:09.237Z,84.84
2022-09-10T02:40:06.572Z,83.41
2022-09-10T02:41:03.189Z,83.08
2022-09-10T02:42:00.098Z,81.71
2022-09-10T02:42:56.658Z,80.01
2022-09-10T02:43:53.311Z,79.84
2022-09-10T02:44:49.906Z,79.70
2022-09-10T02:45:46.545Z,80.02
2022-09-10T02:46:44.272Z,80.48
2022-09-10T02:47:41.086Z,80.78
2022-09-10T02:48:38.761Z,80.72
2022-09-10T02:49:35.392Z,79.78
2022-09-10T02:50:33.688Z,80.36
2022-09-10T02:51:30.548Z,79.60
2022-09-10T02:52:27.144Z,80.19
2022-09-10T02:53:23.822Z,79.62
2022-09-10T02:54:20.426Z,78.99
2022-09-10T02:55:18.076Z,77.55
2022-09-10T02:56:15.381Z,78.46
2022-09-10T02:57:12.314Z,77.87
2022-09-10T02:58:08.919Z,78.49
2022-09-10T02:59:06.387Z,77.26
2022-09-10T03:00:04.344Z,77.01
2022-09-10T03:01:15.956Z,79.02
2022-09-10T03:02:12.895Z,79.44
2022-09-10T03:03:09.512Z,78.31
2022-09-10T03:04:06.234Z,79.20
2022-09-10T03:05:07.212Z,78.47
2022-09-10T03:06:04.553Z,78.94
2022-09-10T03:07:01.480Z,79.44
2022-09-10T03:07:58.372Z,78.15
2022-09-10T03:08:58.067Z,78.10
2022-09-10T03:09:54.615Z,77.17
2022-09-10T03:10:51.178Z,76.99
2022-09-10T03:11:48.037Z,77.14
2022-09-10T03:12:45.603Z,77.91
2022-09-10T03:13:44.079Z,78.58
2022-09-10T03:14:40.631Z,77.45
2022-09-10T03:15:38.277Z,79.27
2022-09-10T03:16:35.355Z,77.89
2022-09-10T03:17:32.872Z,77.48
2022-09-10T03:18:31.745Z,76.08
2022-09-10T03:19:28.752Z,78.63
2022-09-10T03:20:25.955Z,79.33
2022-09-10T03:21:25.245Z,79.49
2022-09-10T03:22:21.984Z,78.97
2022-09-10T03:23:19.206Z,77.66
2022-09-10T03:24:16.033Z,77.06
2022-09-10T03:25:12.635Z,78.97
2022-09-10T03:26:10.275Z,79.74
2022-09-10T03:27:06.918Z,79.05
2022-09-10T03:28:03.814Z,79.14
2022-09-10T03:29:00.404Z,78.82
2022-09-10T03:29:57.054Z,77.78
2022-09-10T03:30:53.613Z,77.89
2022-09-10T03:31:51.764Z,80.07
2022-09-10T03:32:49.216Z,81.42
2022-09-10T03:33:46.348Z,80.28
2022-09-10T03:34:44.285Z,80.76
2022-09-10T03:35:40.832Z,81.86
2022-09-10T03:36:37.383Z,82.17
2022-09-10T03:37:34.040Z,82.63
2022-09-10T03:38:30.941Z,82.61
2022-09-10T03:39:27.549Z,82.70
2022-09-10T03:40:24.180Z,82.50
2022-09-10T03:41:20.791Z,82.48
2022-09-10T03:42:17.526Z,81.73
2022-09-10T03:43:14.289Z,81.47
2022-09-10T03:44:11.556Z,81.20
2022-09-10T03:45:10.100Z,81.12
2022-09-10T03:46:07.101Z,81.50
2022-09-10T03:47:04.985Z,80.05
2022-09-10T03:48:03.225Z,80.08
2022-09-10T03:49:02.390Z,78.50
2022-09-10T03:49:59.795Z,77.84
2022-09-10T03:50:56.687Z,76.85
2022-09-10T03:51:53.614Z,74.62
2022-09-10T03:52:50.197Z,75.32
2022-09-10T03:53:46.805Z,76.14
2022-09-10T03:54:45.143Z,76.74
2022-09-10T03:55:49.086Z,75.77
2022-09-10T03:56:46.122Z,74.96
2022-09-10T03:57:43.302Z,73.99
2022-09-10T03:58:40.083Z,72.65
2022-09-10T03:59:41.239Z,73.19
2022-09-10T04:00:37.892Z,74.68
2022-09-10T04:01:34.587Z,76.56
2022-09-10T04:02:31.769Z,76.84
2022-09-10T04:03:29.348Z,77.14
2022-09-10T04:04:26.063Z,78.16
2022-09-10T04:05:23.353Z,78.18
2022-09-10T04:06:19.945Z,78.84
2022-09-10T04:07:16.509Z,78.73
2022-09-10T04:08:14.201Z,79.15
2022-09-10T04:09:11.280Z,78.09
2022-09-10T04:10:08.244Z,79.25
2022-09-10T04:11:05.572Z,79.01
2022-09-10T04:12:03.762Z,78.86
2022-09-10T04:13:00.308Z,79.35
2022-09-10T04:13:57.595Z,79.50
2022-09-10T04:14:54.397Z,79.39
2022-09-10T04:15:50.983Z,79.68
2022-09-10T04:16:47.735Z,78.21
2022-09-10T04:17:46.520Z,77.08
2022-09-10T04:18:43.162Z,78.15
2022-09-10T04:19:40.827Z,77.00
2022-09-10T04:20:38.240Z,78.27
2022-09-10T04:21:34.902Z,76.89
2022-09-10T04:22:31.512Z,75.76
2022-09-10T04:23:29.610Z,72.99
2022-09-10T04:24:26.244Z,72.86
2022-09-10T04:25:23.194Z,73.28
2022-09-10T04:26:20.512Z,74.33
2022-09-10T04:27:17.483Z,74.25
2022-09-10T04:28:14.038Z,70.32
2022-09-10T04:29:10.673Z,70.90
2022-09-10T04:30:11.169Z,76.03
2022-09-10T04:31:07.795Z,78.76
2022-09-10T04:32:04.515Z,80.19
2022-09-10T04:33:01.098Z,78.97
2022-09-10T04:34:02.001Z,78.61
2022-09-10T04:34:59.311Z,79.16
2022-09-10T04:36:00.501Z,78.93
2022-09-10T04:36:57.104Z,76.58
2022-09-10T04:37:53.671Z,78.34
2022-09-10T04:38:50.274Z,75.94
2022-09-10T04:39:46.919Z,74.11
2022-09-10T04:40:44.285Z,72.99
2022-09-10T04:41:40.852Z,71.64
2022-09-10T04:42:38.366Z,72.04
2022-09-10T04:43:36.619Z,72.83
2022-09-10T04:44:33.892Z,76.23
2022-09-10T04:45:31.099Z,78.16
2022-09-10T04:46:27.758Z,80.54
2022-09-10T04:47:24.366Z,81.67
2022-09-10T04:48:24.586Z,80.84
2022-09-10T04:49:21.163Z,80.90
2022-09-10T04:50:17.714Z,81.88
2022-09-10T04:51:16.977Z,82.23
2022-09-10T04:52:14.810Z,82.91
2022-09-10T04:53:11.391Z,83.55
2022-09-10T04:54:07.973Z,83.81
2022-09-10T04:55:04.887Z,81.53
2022-09-10T04:56:01.751Z,81.84
2022-09-10T04:56:58.301Z,82.72
2022-09-10T04:57:54.916Z,83.63
2022-09-10T04:58:51.857Z,84.77
2022-09-10T04:59:48.412Z,86.19
2022-09-10T05:00:45.091Z,86.82
2022-09-10T05:01:42.188Z,85.75
2022-09-10T05:02:39.058Z,86.45
2022-09-10T05:03:36.122Z,86.31
2022-09-10T05:04:33.287Z,86.46
2022-09-10T05:05:30.743Z,86.74
2022-09-10T05:06:27.327Z,86.90
2022-09-10T05:07:23.935Z,86.85
2022-09-10T05:08:20.542Z,86.83
2022-09-10T05:09:17.682Z,87.01
2022-09-10T05:10:15.378Z,87.79
2022-09-10T05:11:13.186Z,88.54
2022-09-10T05:12:10.561Z,88.56
2022-09-10T05:13:07.998Z,87.40
2022-09-10T05:14:04.823Z,86.95
2022-09-10T05:15:03.278Z,86.75
2022-09-10T05:16:00.164Z,86.04
2022-09-10T05:16:57.067Z,86.77
2022-09-10T05:17:53.940Z,87.85
2022-09-10T05:18:50.633Z,87.04
2022-09-10T05:19:47.237Z,85.76
2022-09-10T05:20:47.186Z,84.71
2022-09-10T05:21:44.777Z,85.32
2022-09-10T05:22:42.832Z,84.43
2022-09-10T05:23:39.552Z,83.07
2022-09-10T05:24:36.167Z,82.06
2022-09-10T05:25:34.615Z,81.72
2022-09-10T05:26:31.169Z,83.12
2022-09-10T05:27:27.726Z,83.49
2022-09-10T05:28:24.763Z,81.77
2022-09-10T05:29:22.095Z,81.40
2022-09-10T05:30:18.991Z,80.33
2022-09-10T05:31:16.606Z,80.03
2022-09-10T05:32:13.439Z,79.76
2022-09-10T05:33:10.049Z,78.63
2022-09-10T05:34:06.706Z,81.12
2022-09-10T05:35:05.513Z,83.02
2022-09-10T05:36:02.704Z,85.35
2022-09-10T05:36:59.269Z,84.42
2022-09-10T05:37:57.390Z,84.73
2022-09-10T05:38:55.156Z,85.09
2022-09-10T05:39:51.780Z,84.83
2022-09-10T05:40:48.662Z,83.48
2022-09-10T05:41:45.261Z,81.27
2022-09-10T05:42:42.229Z,81.47
2022-09-10T05:43:39.023Z,82.34
2022-09-10T05:44:35.717Z,82.42
2022-09-10T05:45:33.534Z,81.31
2022-09-10T05:46:30.971Z,80.82
2022-09-10T05:47:28.282Z,80.32
2022-09-10T05:48:24.844Z,81.10
2022-09-10T05:49:21.456Z,80.36
2022-09-10T05:50:18.132Z,81.61
2022-09-10T05:51:14.831Z,83.02
2022-09-10T05:52:11.440Z,82.45
2022-09-10T05:53:09.617Z,81.62
2022-09-10T05:54:06.315Z,81.71
2022-09-10T05:55:03.829Z,81.45
2022-09-10T05:56:00.854Z,80.78
2022-09-10T05:56:58.722Z,80.66
2022-09-10T05:57:56.666Z,81.96
2022-09-10T05:58:53.609Z,81.89
2022-09-10T05:59:50.463Z,81.61
2022-09-10T06:00:53.588Z,79.24
2022-09-10T06:01:52.140Z,77.69
2022-09-10T06:02:48.902Z,77.64
2022-09-10T06:03:45.684Z,73.51
2022-09-10T06:04:42.279Z,72.73
2022-09-10T06:05:38.888Z,72.88
2022-09-10T06:06:35.483Z,71.60
2022-09-10T06:07:32.134Z,73.19
2022-09-10T06:08:28.932Z,77.55
2022-09-10T06:09:25.608Z,76.17
2022-09-10T06:10:22.257Z,75.01
2022-09-10T06:11:18.933Z,72.36
2022-09-10T06:12:17.237Z,72.83
2022-09-10T06:13:14.015Z,68.76
2022-09-10T06:14:10.635Z,68.87
2022-09-10T06:15:07.609Z,70.38
2022-09-10T06:16:05.209Z,71.38
2022-09-10T06:17:01.984Z,70.72
2022-09-10T06:17:58.685Z,71.16
2022-09-10T06:18:55.360Z,70.33
2022-09-10T06:19:51.967Z,71.42
2022-09-10T06:20:49.120Z,71.81
2022-09-10T06:21:46.909Z,69.77
2022-09-10T06:22:43.507Z,70.42
2022-09-10T06:23:40.349Z,70.51
2022-09-10T06:24:37.757Z,69.54
2022-09-10T06:25:34.428Z,71.58
2022-09-10T06:26:31.078Z,70.76
2022-09-10T06:27:27.655Z,70.18
2022-09-10T06:28:24.840Z,68.77
2022-09-10T06:29:22.650Z,66.71
2022-09-10T06:30:20.773Z,67.96
2022-09-10T06:31:18.108Z,68.55
2022-09-10T06:32:14.985Z,69.57
2022-09-10T06:33:13.791Z,70.10
2022-09-10T06:34:11.528Z,70.84
2022-09-10T06:35:09.849Z,70.39
2022-09-10T06:36:06.534Z,69.94
2022-09-10T06:37:04.214Z,70.16
2022-09-10T06:38:01.046Z,70.23
2022-09-10T06:38:58.067Z,69.08
2022-09-10T06:39:54.720Z,68.52
2022-09-10T06:40:56.038Z,67.10
2022-09-10T06:41:53.698Z,66.84
2022-09-10T06:42:50.740Z,67.74
2022-09-10T06:43:47.391Z,68.79
2022-09-10T06:44:44.340Z,68.67
2022-09-10T06:45:41.033Z,67.80
2022-09-10T06:49:11.849Z,65.91
2022-09-10T06:50:09.033Z,65.82
2022-09-10T06:51:08.194Z,68.29
2022-09-10T06:52:04.896Z,66.55
2022-09-10T06:53:01.965Z,66.59
2022-09-10T06:53:58.619Z,68.31
2022-09-10T06:54:55.435Z,67.75
2022-09-10T06:55:53.197Z,67.76
2022-09-10T06:56:49.885Z,68.40
2022-09-10T06:57:47.116Z,67.74
2022-09-10T06:58:43.767Z,69.34
2022-09-10T06:59:41.352Z,70.53
2022-09-10T07:00:39.348Z,70.56
2022-09-10T07:01:36.235Z,69.81
2022-09-10T07:02:32.850Z,69.88
2022-09-10T07:03:29.670Z,70.67
2022-09-10T07:04:26.315Z,70.91
2022-09-10T07:05:22.895Z,71.67
2022-09-10T07:06:19.528Z,71.79
2022-09-10T07:07:16.137Z,71.97
2022-09-10T07:08:15.952Z,72.09
2022-09-10T07:09:12.559Z,71.63
2022-09-10T07:10:09.542Z,71.25
2022-09-10T07:11:11.375Z,71.68
2022-09-10T07:12:09.478Z,71.03
2022-09-10T07:13:06.925Z,71.37
2022-09-10T07:14:03.772Z,71.72
2022-09-10T07:15:00.388Z,72.39
2022-09-10T07:15:57.648Z,70.91
2022-09-10T07:16:55.633Z,71.62
2022-09-10T07:17:52.276Z,72.05
2022-09-10T07:18:54.669Z,71.12
2022-09-10T07:19:51.127Z,71.35
2022-09-10T07:20:47.749Z,71.16
2022-09-10T07:21:44.901Z,70.04
2022-09-10T07:22:43.844Z,70.17
2022-09-10T07:23:41.047Z,69.92
2022-09-10T07:24:37.887Z,70.80
2022-09-10T07:25:34.464Z,71.07
2022-09-10T07:26:31.411Z,71.08
2022-09-10T07:27:27.977Z,70.64
2022-09-10T07:28:24.557Z,70.19
2022-09-10T07:29:21.127Z,71.10
2022-09-10T07:30:18.897Z,69.97
2022-09-10T07:31:29.806Z,68.07
2022-09-10T07:32:26.374Z,69.19
2022-09-10T07:33:23.018Z,68.72
2022-09-10T07:34:20.318Z,68.68
2022-09-10T07:35:17.186Z,68.98
2022-09-10T07:36:14.975Z,69.95
2022-09-10T07:37:12.038Z,69.10
2022-09-10T07:38:14.153Z,68.48
2022-09-10T07:39:10.903Z,69.18
2022-09-10T07:40:10.759Z,68.72
2022-09-10T07:41:11.289Z,68.74
2022-09-10T07:42:07.977Z,67.85
2022-09-10T07:43:04.658Z,66.59
2022-09-10T07:44:01.289Z,67.72
2022-09-10T07:44:58.164Z,67.11
2022-09-10T07:45:54.842Z,67.74
2022-09-10T07:46:52.890Z,67.68
2022-09-10T07:47:49.979Z,66.67
2022-09-10T07:48:54.472Z,67.68
2022-09-10T07:49:52.696Z,66.90
2022-09-10T07:50:49.397Z,66.53
2022-09-10T07:51:46.020Z,64.62
2022-09-10T07:52:42.837Z,64.44
2022-09-10T07:53:47.515Z,64.28
2022-09-10T07:54:47.013Z,64.32
2022-09-10T07:55:43.620Z,63.22
2022-09-10T07:56:40.177Z,63.88
2022-09-10T07:57:40.652Z,63.50
2022-09-10T07:58:38.416Z,62.64
2022-09-10T07:59:35.057Z,62.76
2022-09-10T08:00:31.901Z,63.05
2022-09-10T08:01:28.533Z,64.06
2022-09-10T08:02:25.856Z,64.34
2022-09-10T08:03:22.594Z,61.84
2022-09-10T08:04:19.184Z,63.44
2022-09-10T08:05:16.950Z,64.28
2022-09-10T08:06:14.569Z,63.98
2022-09-10T08:07:11.152Z,62.53
2022-09-10T08:08:07.776Z,63.01
2022-09-10T08:09:07.623Z,63.08
2022-09-10T08:10:09.732Z,64.33
2022-09-10T08:11:17.830Z,63.03
2022-09-10T08:12:14.889Z,63.69
2022-09-10T08:13:12.728Z,63.23
2022-09-10T08:14:09.579Z,62.08
2022-09-10T08:15:07.796Z,62.43
2022-09-10T08:16:12.517Z,61.48
2022-09-10T08:17:09.190Z,63.10
2022-09-10T08:18:05.865Z,62.35
2022-09-10T08:19:02.730Z,63.03
2022-09-10T08:19:59.419Z,63.42
2022-09-10T08:20:56.042Z,62.78
2022-09-10T08:21:52.718Z,62.72
2022-09-10T08:22:49.653Z,62.84
2022-09-10T08:23:56.288Z,62.62
2022-09-10T08:24:53.355Z,62.37
2022-09-10T08:25:53.653Z,61.66
2022-09-10T08:26:50.360Z,61.22
2022-09-10T08:27:47.116Z,60.54
2022-09-10T08:28:44.298Z,61.04
2022-09-10T08:29:40.892Z,61.05
2022-09-10T08:30:37.430Z,61.49
2022-09-10T08:31:34.723Z,58.89
2022-09-10T08:32:31.337Z,57.88
2022-09-10T08:33:29.579Z,57.88
2022-09-10T08:34:26.422Z,57.23
2022-09-10T08:35:23.030Z,58.69
2022-09-10T08:36:21.895Z,57.48
2022-09-10T08:37:19.123Z,57.19
2022-09-10T08:38:16.299Z,54.45
2022-09-10T08:39:13.350Z,56.23
2022-09-10T08:40:13.355Z,54.66
2022-09-10T08:41:21.921Z,55.91
2022-09-10T08:42:24.668Z,56.58
2022-09-10T08:43:29.226Z,57.18
2022-09-10T08:44:31.279Z,57.39
2022-09-10T08:45:32.775Z,57.53
2022-09-10T08:46:35.759Z,57.84
2022-09-10T08:47:46.585Z,57.69
2022-09-10T08:48:46.322Z,55.45
2022-09-10T08:49:51.094Z,54.76
2022-09-10T08:50:56.632Z,53.97
2022-09-10T08:52:00.838Z,55.13
2022-09-10T08:53:05.449Z,54.93
2022-09-10T08:54:10.250Z,54.97
2022-09-10T08:55:13.323Z,54.21
2022-09-10T08:56:15.348Z,54.67
2022-09-10T08:57:28.134Z,54.59
2022-09-10T08:58:30.910Z,53.37
2022-09-10T08:59:33.558Z,53.84
2022-09-10T09:00:37.822Z,55.17
2022-09-10T09:01:48.201Z,54.61
2022-09-10T09:03:20.341Z,55.54
2022-09-10T09:04:29.784Z,55.01
2022-09-10T09:05:28.199Z,54.81
2022-09-10T09:06:37.653Z,55.37
2022-09-10T09:07:40.332Z,54.31
2022-09-10T09:08:48.242Z,55.36
2022-09-10T09:09:45.567Z,54.92
2022-09-10T09:10:46.887Z,56.93
2022-09-10T09:11:57.560Z,55.92
2022-09-10T09:13:22.383Z,55.58
2022-09-10T09:14:28.496Z,55.66
2022-09-10T09:15:41.700Z,56.36
2022-09-10T09:16:50.273Z,55.31
2022-09-10T09:18:28.153Z,55.94
2022-09-10T09:19:45.424Z,54.89
2022-09-10T09:20:50.005Z,55.50
2022-09-10T09:22:01.564Z,54.50
2022-09-10T09:23:17.473Z,53.76
2022-09-10T09:24:46.123Z,55.21
2022-09-10T09:25:51.646Z,53.74
2022-09-10T09:26:49.792Z,55.60
2022-09-10T09:27:47.630Z,56.71
2022-09-10T09:28:54.731Z,56.32
2022-09-10T09:30:02.562Z,56.56
2022-09-10T09:31:09.325Z,55.11
2022-09-10T09:32:07.184Z,54.66
2022-09-10T09:33:13.649Z,54.29
2022-09-10T09:34:19.515Z,52.97
2022-09-10T09:35:29.062Z,51.46
2022-09-10T09:36:34.384Z,52.00
2022-09-10T09:37:31.341Z,51.98
2022-09-10T09:38:31.496Z,51.65
2022-09-10T09:39:36.443Z,50.15
2022-09-10T09:41:06.692Z,50.77
2022-09-10T09:42:24.705Z,51.25
2022-09-10T09:43:49.806Z,49.95
2022-09-10T09:44:59.254Z,48.17
2022-09-10T09:45:55.982Z,50.48
2022-09-10T09:46:52.630Z,51.19
2022-09-10T09:47:54.368Z,50.64
2022-09-10T09:48:55.789Z,49.33
2022-09-10T09:49:54.016Z,50.96
2022-09-10T09:50:55.725Z,49.21
2022-09-10T09:51:53.364Z,49.41
2022-09-10T09:52:54.939Z,49.93
2022-09-10T09:54:25.849Z,50.18
2022-09-10T09:55:41.474Z,49.30
2022-09-10T09:56:42.974Z,49.29
2022-09-10T09:57:40.159Z,49.64
2022-09-10T09:59:35.208Z,50.15
2022-09-10T10:00:37.842Z,50.43
2022-09-10T10:01:42.087Z,48.36
2022-09-10T10:02:38.780Z,48.91
2022-09-10T10:03:48.402Z,47.70
2022-09-10T10:05:09.670Z,48.99
2022-09-10T10:06:11.477Z,49.27
2022-09-10T10:07:08.171Z,48.75
2022-09-10T10:08:04.772Z,49.54
2022-09-10T10:09:06.974Z,48.42
2022-09-10T10:10:07.982Z,48.90
2022-09-10T10:11:05.055Z,47.90
2022-09-10T10:12:06.381Z,48.04
2022-09-10T10:13:03.622Z,46.58
2022-09-10T10:14:12.633Z,46.30
2022-09-10T10:15:35.536Z,46.20
2022-09-10T10:16:35.912Z,47.54
2022-09-10T10:17:41.291Z,47.53
2022-09-10T10:18:37.984Z,45.83
2022-09-10T10:19:40.317Z,49.35
2022-09-10T10:20:39.000Z,47.87
2022-09-10T10:21:36.909Z,49.29
2022-09-10T10:22:33.708Z,47.11
2022-09-10T10:23:38.190Z,48.16
2022-09-10T10:24:35.055Z,47.54
2022-09-10T10:25:38.533Z,47.81
2022-09-10T10:26:36.295Z,49.33
2022-09-10T10:27:36.806Z,48.86
2022-09-10T10:28:36.197Z,48.50
2022-09-10T10:29:32.895Z,48.92
2022-09-10T10:30:32.171Z,47.90
2022-09-10T10:31:41.807Z,49.12
2022-09-10T10:32:46.550Z,48.28
2022-09-10T10:34:15.358Z,48.62
2022-09-10T10:35:19.485Z,48.94
2022-09-10T10:36:25.519Z,47.66
2022-09-10T10:37:50.571Z,48.53
2022-09-10T10:39:02.995Z,47.72
2022-09-10T10:40:30.474Z,46.63
2022-09-10T10:41:39.824Z,45.41
2022-09-10T10:42:46.826Z,45.28
2022-09-10T10:43:58.206Z,46.57
2022-09-10T10:45:16.560Z,48.08
2022-09-10T10:46:20.287Z,48.24
2022-09-10T10:47:39.680Z,49.10
2022-09-10T10:48:51.260Z,50.01
2022-09-10T10:50:03.608Z,49.81
2022-09-10T10:51:18.221Z,49.35
2022-09-10T10:52:34.551Z,50.78
2022-09-10T10:53:56.767Z,52.09
2022-09-10T10:55:17.402Z,53.81
2022-09-10T10:56:29.870Z,53.67
2022-09-10T10:57:48.025Z,55.10
2022-09-10T10:58:54.518Z,58.49
2022-09-10T11:00:01.216Z,61.40
2022-09-10T11:01:18.125Z,63.51
2022-09-10T11:02:33.504Z,68.13
2022-09-10T11:03:40.145Z,69.79
2022-09-10T11:04:54.810Z,71.04
2022-09-10T11:06:08.500Z,70.32
2022-09-10T11:07:14.145Z,70.78
2022-09-10T11:08:19.509Z,67.85
2022-09-10T11:09:43.280Z,73.02
2022-09-10T11:10:43.476Z,76.82
2022-09-10T11:12:01.263Z,76.94
2022-09-10T11:13:13.691Z,74.29
2022-09-10T11:14:39.112Z,78.68
2022-09-10T11:15:44.155Z,78.33
2022-09-10T11:16:57.958Z,75.30
2022-09-10T11:18:13.090Z,75.57
2022-09-10T11:19:19.757Z,76.24
2022-09-10T11:20:34.414Z,77.58
2022-09-10T11:22:01.740Z,78.19
2022-09-10T11:23:07.314Z,80.95
2022-09-10T11:24:18.914Z,80.12
2022-09-10T11:25:22.115Z,80.69
2022-09-10T11:26:24.843Z,79.57
2022-09-10T11:27:31.384Z,78.78
2022-09-10T11:28:37.628Z,79.09
2022-09-10T11:29:42.528Z,80.99
2022-09-10T11:30:45.306Z,81.07
2022-09-10T11:32:06.445Z,81.92
2022-09-10T11:33:17.226Z,80.77
2022-09-10T11:34:19.840Z,82.53
2022-09-10T11:35:29.325Z,81.15
2022-09-10T11:36:38.840Z,81.14
2022-09-10T11:38:14.286Z,81.55
2022-09-10T11:39:29.240Z,81.96
2022-09-10T11:40:43.667Z,82.13
2022-09-10T11:41:42.666Z,81.82
2022-09-10T11:42:46.796Z,81.76
2022-09-10T11:44:02.168Z,80.91
2022-09-10T11:45:20.531Z,81.29
2022-09-10T11:46:24.050Z,81.80
2022-09-10T11:47:45.970Z,79.96
2022-09-10T11:48:49.512Z,79.26
2022-09-10T11:50:01.007Z,78.86
2022-09-10T11:51:02.333Z,80.22
2022-09-10T11:51:58.952Z,80.23
2022-09-10T11:52:59.163Z,79.17
2022-09-10T11:53:56.564Z,78.27
2022-09-10T11:54:54.142Z,77.40
2022-09-10T11:56:08.995Z,76.56
2022-09-10T11:57:31.214Z,74.58
2022-09-10T11:58:49.489Z,73.34
2022-09-10T11:59:58.318Z,74.10
2022-09-10T12:01:32.643Z,73.74
2022-09-10T12:02:29.177Z,74.65
2022-09-10T12:04:01.450Z,74.47
2022-09-10T12:05:30.008Z,76.95
2022-09-10T12:06:43.156Z,76.98
2022-09-10T12:08:11.115Z,76.66
2022-09-10T12:09:16.836Z,75.45
2022-09-10T12:10:32.929Z,72.14
2022-09-10T12:12:04.544Z,69.29
2022-09-10T12:13:01.562Z,70.26
2022-09-10T12:13:58.937Z,68.20
2022-09-10T12:14:56.149Z,70.95
2022-09-10T12:15:56.824Z,72.37
2022-09-10T12:17:07.100Z,73.31
2022-09-10T12:18:18.927Z,74.29
2022-09-10T12:19:30.716Z,75.99
2022-09-10T12:20:37.479Z,75.56
2022-09-10T12:21:44.118Z,76.15
2022-09-10T12:22:42.118Z,76.25
2022-09-10T12:23:42.709Z,76.59
2022-09-10T12:24:39.883Z,76.28
2022-09-10T12:25:36.581Z,75.49
2022-09-10T12:26:44.892Z,74.72
2022-09-10T12:28:27.809Z,73.07
2022-09-10T12:29:40.221Z,73.02
2022-09-10T12:30:36.763Z,72.96
2022-09-10T12:32:08.571Z,72.84
2022-09-10T12:33:17.445Z,73.63
2022-09-10T12:34:19.640Z,73.06
2022-09-10T12:35:31.487Z,71.12
2022-09-10T12:36:28.157Z,72.27
2022-09-10T12:37:28.207Z,73.55
2022-09-10T12:38:55.597Z,75.08
2022-09-10T12:40:25.199Z,72.43
2022-09-10T12:41:24.514Z,71.27
2022-09-10T12:42:34.641Z,69.61
2022-09-10T12:43:40.350Z,69.39
2022-09-10T12:44:37.726Z,67.84
2022-09-10T12:46:02.978Z,67.54
2022-09-10T12:47:18.040Z,66.23
2022-09-10T12:48:16.742Z,65.43
2022-09-10T12:49:14.110Z,59.73
2022-09-10T12:50:22.048Z,60.33
2022-09-10T12:51:18.636Z,57.51
2022-09-10T12:52:42.798Z,60.92
2022-09-10T12:53:45.401Z,61.63
2022-09-10T12:55:03.074Z,64.62
2022-09-10T12:56:04.168Z,64.56
2022-09-10T12:57:35.842Z,60.59
2022-09-10T12:58:59.869Z,60.95
2022-09-10T13:00:12.626Z,60.90
2022-09-10T13:01:24.647Z,62.84
2022-09-10T13:02:33.990Z,64.06
2022-09-10T13:03:31.444Z,63.11
2022-09-10T13:04:37.308Z,64.56
2022-09-10T13:05:46.748Z,64.57
2022-09-10T13:06:44.260Z,65.36
2022-09-10T13:07:43.936Z,63.50
2022-09-10T13:08:43.762Z,63.12
2022-09-10T13:09:40.601Z,62.09
2022-09-10T13:10:38.923Z,59.88
2022-09-10T13:11:36.705Z,58.97
2022-09-10T13:12:36.543Z,59.06
2022-09-10T13:13:36.172Z,58.71
2022-09-10T13:14:47.536Z,58.82
2022-09-10T13:15:51.098Z,58.15
2022-09-10T13:16:47.954Z,58.46
2022-09-10T13:17:47.164Z,58.77
2022-09-10T13:18:46.603Z,60.12
2022-09-10T13:19:43.126Z,60.48
2022-09-10T13:20:40.345Z,57.40